createdAt,value
2024-02-28T00:01:58.630Z,46
2024-02-28T00:12:07.461Z,47
2024-02-28T00:22:16.381Z,47
2024-02-28T00:32:25.332Z,47
2024-02-28T00:42:34.187Z,49
2024-02-28T00:52:43.251Z,49
2024-02-28T01:02:52.045Z,43
2024-02-28T01:13:01.028Z,39
2024-02-28T01:23:10.138Z,37
2024-02-28T01:33:19.019Z,37
2024-02-28T01:43:27.934Z,37
2024-02-28T01:53:36.901Z,37
2024-02-28T02:03:45.803Z,37
2024-02-28T02:13:54.636Z,37
2024-02-28T02:24:06.252Z,37
2024-02-28T02:34:05.167Z,37
2024-02-28T02:44:13.909Z,37
2024-02-28T02:54:25.264Z,38
2024-02-28T03:04:24.117Z,38
2024-02-28T03:14:33.045Z,38
2024-02-28T03:24:42.003Z,38
2024-02-28T03:34:51.910Z,38
2024-02-28T03:44:50.758Z,38
2024-02-28T03:54:59.688Z,38
2024-02-28T04:05:08.619Z,39
2024-02-28T04:15:17.306Z,39
2024-02-28T04:25:26.093Z,39
2024-02-28T04:35:34.878Z,39
2024-02-28T04:45:43.978Z,39
2024-02-28T04:55:53.014Z,39
2024-02-28T05:06:02.084Z,40
2024-02-28T05:16:11.085Z,40
2024-02-28T05:26:20.155Z,40
2024-02-28T05:36:29.332Z,39
2024-02-28T05:46:38.227Z,40
2024-02-28T05:56:47.138Z,40
2024-02-28T06:06:56.403Z,40
2024-02-28T06:17:06.410Z,39
2024-02-28T06:27:05.426Z,39
2024-02-28T06:37:14.236Z,40
2024-02-28T06:47:23.185Z,39
2024-02-28T06:57:23.465Z,40
2024-02-28T07:07:32.741Z,39
2024-02-28T07:17:42.321Z,40
2024-02-28T07:27:51.739Z,40
2024-02-28T07:38:00.892Z,39
2024-02-28T07:48:11.564Z,40
2024-02-28T07:58:17.025Z,39
2024-02-28T08:08:16.785Z,39
2024-02-28T08:18:26.075Z,39
2024-02-28T08:28:35.180Z,39
2024-02-28T08:38:44.273Z,38
2024-02-28T08:48:53.625Z,38
2024-02-28T08:59:04.197Z,38
2024-02-28T09:09:06.397Z,38
2024-02-28T09:19:08.175Z,37
2024-02-28T09:29:07.498Z,37
2024-02-28T09:39:16.624Z,37
2024-02-28T09:49:26.112Z,37
2024-02-28T09:59:32.106Z,37
2024-02-28T10:09:35.601Z,36
2024-02-28T10:19:44.527Z,36
2024-02-28T10:29:53.794Z,35
2024-02-28T10:40:03.093Z,35
2024-02-28T10:50:05.250Z,35
2024-02-28T11:00:14.620Z,34
2024-02-28T11:10:23.930Z,34
2024-02-28T11:20:33.756Z,34
2024-02-28T11:30:43.217Z,34
2024-02-28T11:40:52.481Z,34
2024-02-28T11:50:53.080Z,33
2024-02-28T12:00:53.729Z,31
2024-02-28T12:11:03.514Z,30
2024-02-28T12:21:12.846Z,29
2024-02-28T12:31:14.631Z,29
2024-02-28T12:41:13.575Z,29
2024-02-28T12:51:22.717Z,28
2024-02-28T13:01:31.837Z,28
2024-02-28T13:11:40.871Z,28
2024-02-28T13:21:51.061Z,27
2024-02-28T13:31:50.310Z,27
2024-02-28T13:41:51.628Z,27
2024-02-28T13:52:00.594Z,31
2024-02-28T14:02:09.948Z,34
2024-02-28T14:12:22.900Z,36
2024-02-28T14:22:22.461Z,35
2024-02-28T14:32:24.411Z,39
2024-02-28T14:42:24.951Z,40
2024-02-28T14:52:26.786Z,40
2024-02-28T15:02:29.066Z,41
2024-02-28T15:12:39.725Z,42
2024-02-28T15:22:40.252Z,41
2024-02-28T15:32:49.261Z,40
2024-02-28T15:42:58.383Z,40
2024-02-28T15:53:08.624Z,40
2024-02-28T16:03:18.328Z,39
2024-02-28T16:13:18.591Z,39
2024-02-28T16:23:29.259Z,41
2024-02-28T16:33:28.144Z,40
2024-02-28T16:43:36.552Z,39
2024-02-28T16:53:45.400Z,38
2024-02-28T17:03:54.291Z,40
2024-02-28T17:14:03.162Z,40
2024-02-28T17:24:12.706Z,40
2024-02-28T17:34:21.861Z,40
2024-02-28T17:44:30.931Z,41
2024-02-28T17:54:41.321Z,41
2024-02-28T18:04:40.208Z,40
2024-02-28T18:14:41.594Z,40
2024-02-28T18:24:41.874Z,40
2024-02-28T18:34:52.153Z,39
2024-02-28T18:45:00.899Z,39
2024-02-28T18:55:00.832Z,41
2024-02-28T19:05:15.655Z,42
2024-02-28T19:15:15.487Z,42
2024-02-28T19:25:18.291Z,42
2024-02-28T19:35:18.404Z,42
2024-02-28T19:45:21.209Z,41
2024-02-28T20:05:22.371Z,42
2024-02-28T20:25:26.601Z,40
2024-02-28T20:35:35.376Z,39
2024-02-28T20:45:44.353Z,39
2024-02-28T20:55:53.123Z,41
2024-02-28T21:06:01.978Z,43
2024-02-28T21:16:10.803Z,43
2024-02-28T21:26:19.660Z,43
2024-02-28T21:36:28.474Z,43
2024-02-28T21:46:37.357Z,44
2024-02-28T21:56:46.172Z,44
2024-02-28T22:06:54.985Z,44
2024-02-28T22:17:03.933Z,44
2024-02-28T22:27:12.769Z,44
2024-02-28T22:37:21.633Z,45
2024-02-28T22:47:30.577Z,45
2024-02-28T22:57:39.507Z,46
2024-02-28T23:07:48.410Z,47
2024-02-28T23:17:57.286Z,47
2024-02-28T23:28:06.535Z,48
2024-02-28T23:38:16.371Z,49
2024-02-28T23:48:25.186Z,50
2024-02-28T23:58:33.999Z,51
